Time;durP1;ratioP1;P1;durP2;ratioP2;P2;SDS_P1;SDS_P2;PMS_P1;PMS_P2;Temp;Humidity;BMP_temperature;BMP_pressure;BME280_temperature;BME280_humidity;BME280_pressure;Samples;Min_cycle;Max_cycle;Signal;HPM_P1;HPM_P2
2021/09/18 00:01:43;;;;;;;7.50;4.93;;;12.80;78.20;;;;;;5033692;28;20022;-78
2021/09/18 00:04:09;;;;;;;7.75;5.05;;;12.70;77.60;;;;;;5033665;28;20025;-78
2021/09/18 00:06:35;;;;;;;6.95;4.63;;;12.60;78.30;;;;;;5033825;28;20028;-78
2021/09/18 00:09:01;;;;;;;8.13;4.72;;;12.60;79.10;;;;;;5033786;28;20064;-79
2021/09/18 00:11:26;;;;;;;6.82;4.65;;;12.60;78.90;;;;;;5033506;28;20021;-78
2021/09/18 00:13:52;;;;;;;6.03;4.97;;;12.60;78.60;;;;;;5017090;28;20034;-78
2021/09/18 00:16:18;;;;;;;9.95;5.40;;;12.60;78.40;;;;;;5033828;28;20033;-78
2021/09/18 00:18:43;;;;;;;6.47;5.25;;;12.70;78.00;;;;;;5033527;28;20069;-78
2021/09/18 00:21:09;;;;;;;6.18;4.90;;;12.60;78.40;;;;;;5033500;28;20018;-78
2021/09/18 00:23:35;;;;;;;6.68;4.80;;;12.60;78.20;;;;;;5033565;28;20025;-78
2021/09/18 00:26:01;;;;;;;8.10;4.95;;;12.60;78.10;;;;;;5033382;28;20022;-78
2021/09/18 00:28:28;;;;;;;7.65;4.75;;;12.60;78.60;;;;;;5032572;28;20032;-78
2021/09/18 00:30:53;;;;;;;6.35;4.80;;;12.70;78.50;;;;;;5034767;28;20090;-78
2021/09/18 00:33:19;;;;;;;7.22;4.65;;;12.70;78.60;;;;;;5033220;28;20474;-78
2021/09/18 00:35:45;;;;;;;9.50;5.13;;;12.70;78.00;;;;;;5033045;28;20060;-78
2021/09/18 00:38:12;;;;;;;5.22;4.35;;;12.80;78.20;;;;;;5033174;28;20025;-78
2021/09/18 00:40:38;;;;;;;4.88;4.40;;;12.90;78.50;;;;;;5033221;28;20032;-78
2021/09/18 00:43:03;;;;;;;5.43;3.75;;;12.90;78.60;;;;;;5032804;28;20043;-79
2021/09/18 00:45:29;;;;;;;6.25;4.10;;;13.10;78.00;;;;;;5033027;28;20113;-77
2021/09/18 00:47:55;;;;;;;9.05;4.90;;;13.10;76.70;;;;;;5032784;28;20115;-78
2021/09/18 00:50:20;;;;;;;6.50;4.32;;;13.00;76.50;;;;;;5032747;28;20466;-77
2021/09/18 00:52:47;;;;;;;5.00;4.50;;;12.80;76.80;;;;;;5033024;28;20040;-77
2021/09/18 00:55:13;;;;;;;8.75;4.57;;;12.60;76.50;;;;;;5016632;28;20045;-77
2021/09/18 00:57:40;;;;;;;7.70;4.97;;;12.40;77.20;;;;;;5034252;28;20036;-78
2021/09/18 01:00:08;;;;;;;7.55;5.18;;;12.20;78.00;;;;;;5034178;28;20029;-77
2021/09/18 01:02:35;;;;;;;5.22;4.72;;;12.10;78.60;;;;;;5032979;28;20028;-77
2021/09/18 01:05:04;;;;;;;5.50;4.75;;;12.00;78.60;;;;;;5034051;28;20072;-76
2021/09/18 01:07:30;;;;;;;5.80;4.93;;;11.90;79.10;;;;;;5032076;28;20096;-76
2021/09/18 01:09:57;;;;;;;5.55;4.65;;;11.90;79.70;;;;;;5032541;28;20456;-76
2021/09/18 01:12:22;;;;;;;4.55;4.00;;;11.80;80.00;;;;;;5032418;28;20025;-77
2021/09/18 01:14:48;;;;;;;4.88;4.38;;;11.90;79.80;;;;;;5032223;28;20029;-76
2021/09/18 01:17:16;;;;;;;3.92;3.53;;;11.80;79.60;;;;;;5033882;28;20079;-76
2021/09/18 01:19:42;;;;;;;5.95;4.82;;;11.90;79.60;;;;;;5032342;28;20040;-76
2021/09/18 01:22:09;;;;;;;9.35;5.43;;;11.90;79.40;;;;;;5032686;28;20021;-77
2021/09/18 01:24:36;;;;;;;7.85;5.28;;;11.70;79.90;;;;;;5032551;28;20029;-77
2021/09/18 01:27:03;;;;;;;9.20;5.18;;;11.60;79.90;;;;;;5032363;28;20128;-77
2021/09/18 01:29:28;;;;;;;11.82;6.05;;;11.60;80.10;;;;;;5032548;28;20061;-77
2021/09/18 01:31:54;;;;;;;10.18;5.63;;;11.40;80.80;;;;;;5033553;28;20049;-76
2021/09/18 01:34:21;;;;;;;8.73;5.88;;;11.30;81.00;;;;;;5015965;28;20040;-76
2021/09/18 01:36:48;;;;;;;5.35;4.85;;;11.30;81.50;;;;;;5032042;28;20071;-76
2021/09/18 01:39:15;;;;;;;6.43;4.65;;;11.20;81.50;;;;;;5032247;28;20037;-76
2021/09/18 01:41:43;;;;;;;8.18;5.72;;;11.10;81.90;;;;;;5031593;28;20086;-76
2021/09/18 01:44:10;;;;;;;8.18;6.55;;;11.20;81.90;;;;;;5033518;28;20021;-77
2021/09/18 01:46:36;;;;;;;6.15;5.50;;;11.20;81.80;;;;;;5033190;28;20047;-77
2021/09/18 01:49:02;;;;;;;7.25;5.90;;;11.30;81.70;;;;;;5031731;28;20473;-77
2021/09/18 01:51:30;;;;;;;11.05;6.22;;;11.30;81.30;;;;;;5015554;28;20037;-75
2021/09/18 01:53:56;;;;;;;10.27;5.93;;;11.30;81.10;;;;;;5031862;28;20501;-76
2021/09/18 01:56:22;;;;;;;11.65;7.53;;;11.30;81.00;;;;;;5031771;28;20033;-75
2021/09/18 01:58:49;;;;;;;13.43;7.78;;;11.30;80.80;;;;;;5031460;28;20053;-76
2021/09/18 02:01:15;;;;;;;9.25;7.07;;;11.30;80.90;;;;;;5032337;28;20076;-76
2021/09/18 02:03:40;;;;;;;8.68;6.43;;;11.30;81.10;;;;;;5031941;28;20025;-76
2021/09/18 02:06:06;;;;;;;6.15;5.25;;;11.30;81.30;;;;;;5031491;28;20461;-78
2021/09/18 02:08:32;;;;;;;11.77;6.97;;;11.20;81.20;;;;;;5031577;28;20029;-77
2021/09/18 02:10:58;;;;;;;8.88;6.30;;;11.20;81.40;;;;;;5031567;28;20450;-79
2021/09/18 02:13:24;;;;;;;8.70;6.07;;;11.10;81.80;;;;;;5031594;28;20025;-77
2021/09/18 02:15:50;;;;;;;6.70;6.00;;;11.00;81.90;;;;;;5031746;28;20136;-76
2021/09/18 02:18:17;;;;;;;9.38;6.03;;;11.00;82.20;;;;;;5031535;28;20490;-77
2021/09/18 02:20:44;;;;;;;8.32;6.20;;;11.00;82.30;;;;;;5032807;28;20036;-77
2021/09/18 02:23:12;;;;;;;8.95;6.50;;;11.00;82.40;;;;;;5031626;28;20022;-76
2021/09/18 02:25:38;;;;;;;7.40;6.15;;;11.00;82.00;;;;;;5031501;28;20478;-77
2021/09/18 02:28:05;;;;;;;7.00;6.20;;;10.90;82.30;;;;;;5031672;28;20385;-79
2021/09/18 02:30:34;;;;;;;8.85;5.30;;;10.90;83.00;;;;;;5031653;28;20025;-78
2021/09/18 02:33:00;;;;;;;8.05;5.15;;;10.80;82.70;;;;;;5031467;28;20029;-77
2021/09/18 02:35:29;;;;;;;10.05;5.85;;;10.90;82.90;;;;;;5032620;28;20029;-77
2021/09/18 02:37:56;;;;;;;9.90;5.60;;;10.90;82.80;;;;;;5031067;28;20032;-76
2021/09/18 02:40:23;;;;;;;8.65;5.88;;;10.90;82.60;;;;;;5032464;28;20061;-76
2021/09/18 02:42:55;;;;;;;8.13;5.63;;;10.90;82.50;;;;;;5031275;28;20087;-77
2021/09/18 02:45:21;;;;;;;12.00;6.18;;;10.90;82.20;;;;;;5031237;28;20026;-75
2021/09/18 02:47:47;;;;;;;6.78;5.65;;;10.90;82.40;;;;;;5031031;28;20029;-76
2021/09/18 02:50:15;;;;;;;6.95;5.70;;;10.90;82.70;;;;;;5031341;28;20017;-76
2021/09/18 02:52:41;;;;;;;8.52;6.20;;;10.90;82.90;;;;;;5032773;28;20076;-77
2021/09/18 02:55:07;;;;;;;7.38;5.90;;;10.80;83.00;;;;;;5035198;28;20046;-77
2021/09/18 02:57:33;;;;;;;6.47;5.72;;;10.70;83.00;;;;;;5035250;28;20095;-77
2021/09/18 02:59:59;;;;;;;6.68;5.80;;;10.70;83.40;;;;;;5035117;28;20477;-76
2021/09/18 03:02:25;;;;;;;9.27;5.90;;;10.70;83.50;;;;;;5034935;28;20032;-76
2021/09/18 03:04:50;;;;;;;9.05;6.55;;;10.70;83.50;;;;;;5034873;28;20095;-76
2021/09/18 03:07:16;;;;;;;9.80;6.13;;;10.70;83.40;;;;;;5018689;28;20116;-76
2021/09/18 03:09:42;;;;;;;9.07;5.70;;;10.70;83.50;;;;;;5036230;28;20527;-76
2021/09/18 03:12:07;;;;;;;10.45;5.72;;;10.60;83.80;;;;;;5034653;28;20025;-76
2021/09/18 03:14:33;;;;;;;8.52;5.80;;;10.60;84.00;;;;;;5034722;28;20022;-76
2021/09/18 03:16:59;;;;;;;8.35;5.85;;;10.60;84.00;;;;;;5035847;28;20393;-76
2021/09/18 03:19:24;;;;;;;8.25;5.53;;;10.60;84.10;;;;;;5036050;28;20033;-76
2021/09/18 03:21:50;;;;;;;7.70;5.60;;;10.50;84.70;;;;;;5034323;28;20021;-77
2021/09/18 03:24:16;;;;;;;9.45;5.40;;;10.50;83.80;;;;;;5034476;28;20029;-76
2021/09/18 03:26:43;;;;;;;7.57;5.47;;;10.50;83.60;;;;;;5034545;28;20260;-77
2021/09/18 03:29:09;;;;;;;7.70;6.13;;;10.50;83.60;;;;;;5034504;28;20029;-77
2021/09/18 03:31:35;;;;;;;6.75;6.05;;;10.50;83.70;;;;;;5034343;28;20127;-78
2021/09/18 03:34:01;;;;;;;8.27;6.10;;;10.50;83.80;;;;;;5035911;28;20061;-77
2021/09/18 03:36:26;;;;;;;8.02;5.63;;;10.50;84.30;;;;;;5034264;28;20021;-77
2021/09/18 03:38:52;;;;;;;7.28;5.65;;;10.50;84.20;;;;;;5034139;28;20087;-76
2021/09/18 03:41:17;;;;;;;10.02;6.40;;;10.50;84.10;;;;;;5034050;28;20025;-75
2021/09/18 03:43:43;;;;;;;12.32;5.95;;;10.50;83.80;;;;;;5033842;28;20116;-75
2021/09/18 03:46:10;;;;;;;7.35;5.63;;;10.50;83.70;;;;;;5033867;28;20056;-75
2021/09/18 03:48:35;;;;;;;10.32;6.32;;;10.40;83.80;;;;;;5034218;28;20036;-75
2021/09/18 03:51:01;;;;;;;7.72;6.15;;;10.40;84.00;;;;;;5033755;28;20021;-76
2021/09/18 03:53:28;;;;;;;7.20;5.78;;;10.40;84.90;;;;;;5033996;28;20036;-76
2021/09/18 03:55:54;;;;;;;8.98;6.00;;;10.40;84.00;;;;;;5033820;28;20029;-76
2021/09/18 03:58:19;;;;;;;7.15;5.72;;;10.40;84.00;;;;;;5033759;28;20033;-76
2021/09/18 04:00:45;;;;;;;8.88;5.95;;;10.40;84.00;;;;;;5034072;28;20033;-76
2021/09/18 04:03:11;;;;;;;9.70;6.35;;;10.40;84.00;;;;;;5034535;28;20022;-76
2021/09/18 04:05:38;;;;;;;6.75;5.82;;;10.40;83.70;;;;;;5033319;28;20096;-75
2021/09/18 04:08:10;;;;;;;7.75;5.88;;;10.30;84.00;;;;;;5033847;28;20053;-77
2021/09/18 04:10:38;;;;;;;6.97;5.65;;;10.40;84.00;;;;;;5035104;28;20037;-77
2021/09/18 04:13:04;;;;;;;8.25;5.80;;;10.40;83.70;;;;;;5033833;28;20025;-77
2021/09/18 04:15:30;;;;;;;6.97;5.95;;;10.40;83.60;;;;;;5033712;28;20482;-77
2021/09/18 04:17:56;;;;;;;7.78;6.00;;;10.30;83.70;;;;;;5033455;28;20040;-77
2021/09/18 04:20:23;;;;;;;7.82;5.88;;;10.30;84.00;;;;;;5033553;28;20033;-77
2021/09/18 04:22:48;;;;;;;7.93;6.00;;;10.20;84.00;;;;;;5033716;28;20032;-77
2021/09/18 04:25:14;;;;;;;7.75;6.15;;;10.20;84.20;;;;;;5033472;28;20112;-77
2021/09/18 04:27:40;;;;;;;8.35;6.80;;;10.10;84.60;;;;;;5033213;28;20021;-77
2021/09/18 04:30:07;;;;;;;10.45;6.88;;;10.10;84.80;;;;;;5033605;28;20034;-77
2021/09/18 04:32:33;;;;;;;10.07;6.32;;;10.10;85.00;;;;;;5033372;28;20025;-77
2021/09/18 04:34:58;;;;;;;10.50;6.80;;;10.10;85.10;;;;;;5033353;28;20030;-77
2021/09/18 04:37:24;;;;;;;9.93;6.90;;;10.00;84.90;;;;;;5033099;28;20394;-77
2021/09/18 04:39:50;;;;;;;9.30;6.45;;;10.10;85.10;;;;;;5033234;28;20037;-76
2021/09/18 04:42:16;;;;;;;12.20;6.93;;;10.00;86.00;;;;;;5034472;28;20029;-75
2021/09/18 04:44:42;;;;;;;10.90;7.10;;;10.00;85.10;;;;;;5032917;28;20025;-76
2021/09/18 04:47:08;;;;;;;9.77;7.03;;;9.90;85.50;;;;;;5033203;28;20108;-77
2021/09/18 04:49:33;;;;;;;9.30;6.85;;;9.90;85.80;;;;;;5033035;28;20113;-76
2021/09/18 04:51:59;;;;;;;8.55;6.88;;;9.90;86.10;;;;;;5032854;28;20048;-76
2021/09/18 04:54:24;;;;;;;13.27;7.35;;;9.90;86.30;;;;;;5032990;28;20053;-77
2021/09/18 04:56:51;;;;;;;10.65;6.75;;;9.90;86.00;;;;;;5033009;28;20017;-76
2021/09/18 04:59:16;;;;;;;12.85;7.97;;;9.90;86.00;;;;;;5032873;28;20064;-75
2021/09/18 05:01:42;;;;;;;15.07;6.93;;;9.90;86.10;;;;;;5032935;28;20052;-74
2021/09/18 05:04:08;;;;;;;8.55;6.60;;;9.80;85.60;;;;;;5032899;28;20397;-74
2021/09/18 05:06:33;;;;;;;10.57;6.97;;;9.80;85.60;;;;;;5034061;28;20056;-75
2021/09/18 05:08:59;;;;;;;10.98;7.18;;;9.70;85.80;;;;;;5032561;28;20036;-74
2021/09/18 05:11:25;;;;;;;10.20;7.93;;;9.70;86.00;;;;;;5032799;28;20382;-75
2021/09/18 05:13:50;;;;;;;10.73;7.22;;;9.70;86.20;;;;;;5032525;28;20359;-76
2021/09/18 05:16:16;;;;;;;10.75;6.57;;;9.70;86.40;;;;;;5031980;28;20120;-75
2021/09/18 05:18:42;;;;;;;13.93;7.05;;;9.80;86.30;;;;;;5032324;28;20033;-76
2021/09/18 05:21:07;;;;;;;10.35;6.50;;;9.80;86.20;;;;;;5031998;28;20060;-76
2021/09/18 05:23:33;;;;;;;10.05;6.97;;;9.80;86.10;;;;;;5032157;28;20028;-76
2021/09/18 05:25:58;;;;;;;9.45;6.78;;;9.90;86.10;;;;;;5032338;28;20124;-76
2021/09/18 05:28:24;;;;;;;9.70;6.22;;;9.90;86.90;;;;;;5032016;28;20408;-76
2021/09/18 05:30:49;;;;;;;9.27;6.50;;;10.00;86.10;;;;;;5033238;28;20109;-76
2021/09/18 05:33:15;;;;;;;9.43;6.63;;;10.10;86.30;;;;;;5031929;28;20022;-77
2021/09/18 05:35:41;;;;;;;11.30;7.25;;;10.10;86.50;;;;;;5033487;28;20026;-77
2021/09/18 05:38:07;;;;;;;10.13;7.22;;;10.10;85.70;;;;;;5033449;28;20108;-77
2021/09/18 05:40:33;;;;;;;9.48;7.53;;;10.10;85.50;;;;;;5032052;28;20037;-79
2021/09/18 05:43:00;;;;;;;10.48;7.07;;;10.10;85.40;;;;;;5032093;28;20374;-78
2021/09/18 05:45:25;;;;;;;9.95;7.45;;;10.00;84.80;;;;;;5031565;28;20033;-76
2021/09/18 05:47:51;;;;;;;9.93;7.53;;;10.00;85.00;;;;;;5031799;28;20049;-79
2021/09/18 05:50:17;;;;;;;10.00;6.63;;;10.10;85.20;;;;;;5031980;28;20116;-76
2021/09/18 05:52:42;;;;;;;17.15;6.75;;;10.10;85.20;;;;;;5031677;28;20473;-76
2021/09/18 05:55:10;;;;;;;10.13;6.47;;;10.10;85.10;;;;;;5031639;28;20052;-77
2021/09/18 05:57:35;;;;;;;9.40;6.50;;;10.20;84.80;;;;;;5031429;28;20033;-75
2021/09/18 06:00:01;;;;;;;9.10;6.53;;;10.20;85.00;;;;;;5031362;28;20112;-76
2021/09/18 06:02:26;;;;;;;11.45;6.60;;;10.30;84.80;;;;;;5031267;28;20022;-74
2021/09/18 06:04:54;;;;;;;10.45;6.35;;;10.40;84.50;;;;;;5031497;28;20056;-76
2021/09/18 06:07:19;;;;;;;11.70;6.05;;;10.50;84.30;;;;;;5031667;28;20113;-76
2021/09/18 06:09:45;;;;;;;7.70;5.70;;;10.70;84.20;;;;;;5031195;28;20120;-75
2021/09/18 06:12:10;;;;;;;7.82;5.20;;;10.80;83.80;;;;;;5030839;28;20078;-79
2021/09/18 06:14:36;;;;;;;8.13;6.30;;;10.90;83.40;;;;;;5031322;28;20492;-76
2021/09/18 06:17:02;;;;;;;6.35;5.25;;;11.10;83.20;;;;;;5032651;28;20024;-76
2021/09/18 06:19:29;;;;;;;7.90;5.68;;;11.20;82.80;;;;;;5030868;28;20513;-75
2021/09/18 06:21:54;;;;;;;7.47;4.90;;;11.40;82.20;;;;;;5033021;28;20033;-75
2021/09/18 06:24:20;;;;;;;6.07;4.68;;;11.50;81.90;;;;;;5031285;28;20021;-76
2021/09/18 06:26:46;;;;;;;9.00;6.05;;;11.70;81.60;;;;;;5030555;28;20029;-76
2021/09/18 06:29:12;;;;;;;5.70;4.70;;;11.80;81.00;;;;;;5031303;28;20021;-76
2021/09/18 06:31:38;;;;;;;5.85;4.63;;;11.90;80.80;;;;;;5031521;28;20033;-76
2021/09/18 06:34:04;;;;;;;7.78;6.05;;;12.00;80.50;;;;;;5031130;28;20021;-77
2021/09/18 06:36:30;;;;;;;6.70;5.07;;;12.10;80.00;;;;;;5031198;28;20061;-77
2021/09/18 06:38:56;;;;;;;7.03;5.70;;;12.30;80.10;;;;;;5014855;28;20045;-76
2021/09/18 06:41:22;;;;;;;7.88;5.03;;;12.30;79.70;;;;;;5030884;28;20029;-77
2021/09/18 06:43:48;;;;;;;9.90;5.85;;;12.40;79.50;;;;;;5031093;28;20120;-76
2021/09/18 06:46:15;;;;;;;8.65;6.00;;;12.50;79.50;;;;;;5031944;28;20037;-76
2021/09/18 06:48:41;;;;;;;10.95;6.90;;;12.60;79.40;;;;;;5032496;28;20112;-76
2021/09/18 06:51:06;;;;;;;43.03;26.73;;;12.60;78.80;;;;;;5032239;28;20033;-76
2021/09/18 06:53:32;;;;;;;8.27;6.32;;;12.70;78.90;;;;;;5030832;28;20627;-76
2021/09/18 06:55:57;;;;;;;6.78;5.32;;;12.70;78.80;;;;;;5031389;28;20042;-76
2021/09/18 06:58:23;;;;;;;6.93;5.03;;;12.80;78.90;;;;;;5031245;28;20022;-78
2021/09/18 07:00:49;;;;;;;7.63;4.57;;;12.90;79.30;;;;;;5030876;28;20026;-77
2021/09/18 07:03:14;;;;;;;4.47;4.00;;;13.10;79.30;;;;;;5030765;28;20068;-79
2021/09/18 07:05:41;;;;;;;5.30;4.35;;;13.20;79.10;;;;;;5032088;28;20071;-79
2021/09/18 07:08:11;;;;;;;4.70;4.00;;;13.40;78.80;;;;;;5031086;28;20045;-80
2021/09/18 07:10:37;;;;;;;7.30;5.88;;;13.50;78.30;;;;;;5031015;28;20018;-75
2021/09/18 07:13:03;;;;;;;8.43;5.72;;;13.50;77.50;;;;;;5032077;28;20032;-76
2021/09/18 07:15:28;;;;;;;8.18;5.80;;;13.60;77.20;;;;;;5030545;28;20063;-76
2021/09/18 07:17:57;;;;;;;7.63;5.55;;;13.70;77.50;;;;;;5030819;28;20041;-77
2021/09/18 07:20:22;;;;;;;8.85;5.95;;;13.70;77.40;;;;;;5031128;28;20116;-77
2021/09/18 07:22:49;;;;;;;7.65;5.55;;;13.70;77.40;;;;;;5014583;28;20113;-77
2021/09/18 07:25:14;;;;;;;6.40;5.43;;;13.70;77.20;;;;;;5032137;28;20025;-77
2021/09/18 07:27:40;;;;;;;9.60;6.40;;;13.90;77.40;;;;;;5030615;28;20053;-78
2021/09/18 07:30:06;;;;;;;6.78;5.50;;;14.00;77.00;;;;;;5031061;28;20120;-77
2021/09/18 07:32:32;;;;;;;9.40;6.07;;;14.10;76.70;;;;;;5030399;28;20021;-77
2021/09/18 07:34:58;;;;;;;8.82;5.68;;;14.20;76.80;;;;;;5030921;28;20033;-77
2021/09/18 07:37:23;;;;;;;6.53;5.93;;;14.30;76.60;;;;;;5014449;28;20029;-77
2021/09/18 07:39:50;;;;;;;12.23;6.55;;;14.40;76.40;;;;;;5035301;28;20041;-77
2021/09/18 07:42:18;;;;;;;9.40;5.03;;;14.40;75.90;;;;;;5034053;28;20025;-74
2021/09/18 07:44:45;;;;;;;8.30;6.25;;;14.40;77.00;;;;;;5033622;28;20052;-79
2021/09/18 07:47:12;;;;;;;8.93;4.90;;;14.80;82.50;;;;;;5035505;28;20026;-79
2021/09/18 07:49:39;;;;;;;6.05;5.05;;;15.10;81.10;;;;;;5034247;28;20026;-79
2021/09/18 07:52:06;;;;;;;5.05;3.85;;;15.40;79.80;;;;;;5034339;28;20409;-78
2021/09/18 07:54:32;;;;;;;8.18;4.75;;;15.70;79.80;;;;;;5033971;28;20041;-78
2021/09/18 07:56:59;;;;;;;7.68;4.32;;;15.90;75.40;;;;;;5033721;28;20075;-79
2021/09/18 07:59:26;;;;;;;9.55;4.10;;;16.10;75.30;;;;;;5033896;28;20034;-80
2021/09/18 08:02:13;;;;;;;8.77;4.18;;;16.50;75.00;;;;;;5033649;28;20363;-85
2021/09/18 08:04:39;;;;;;;8.07;4.07;;;16.70;73.80;;;;;;5033549;28;20116;-79
2021/09/18 08:07:04;;;;;;;5.80;3.78;;;16.90;73.00;;;;;;5033649;28;20118;-79
2021/09/18 08:09:30;;;;;;;9.05;3.60;;;17.00;72.10;;;;;;5033141;28;20033;-78
2021/09/18 08:11:58;;;;;;;5.00;3.38;;;17.20;72.70;;;;;;5033227;28;20144;-78
2021/09/18 08:14:24;;;;;;;7.35;4.07;;;17.40;70.90;;;;;;5033170;28;20045;-78
2021/09/18 08:16:53;;;;;;;4.22;3.47;;;17.40;69.20;;;;;;5033238;28;20480;-78
2021/09/18 08:19:19;;;;;;;6.32;5.72;;;17.30;70.10;;;;;;5034633;28;20072;-80
2021/09/18 08:21:45;;;;;;;5.60;4.13;;;17.30;69.40;;;;;;5020650;28;20061;-79
2021/09/18 08:24:10;;;;;;;7.75;3.90;;;17.40;69.70;;;;;;5034618;28;20048;-80
2021/09/18 08:26:36;;;;;;;5.32;4.78;;;17.50;69.50;;;;;;5039349;28;20068;-78
2021/09/18 08:29:02;;;;;;;6.63;4.25;;;17.70;67.80;;;;;;5035557;28;20465;-79
2021/09/18 08:31:27;;;;;;;5.97;3.85;;;17.70;67.80;;;;;;5035340;28;20021;-78
2021/09/18 08:33:53;;;;;;;6.38;4.30;;;17.70;67.20;;;;;;5032859;28;20053;-79
2021/09/18 08:36:19;;;;;;;5.35;4.50;;;17.70;66.10;;;;;;5033368;28;20056;-80
2021/09/18 08:38:45;;;;;;;5.28;3.22;;;17.60;67.20;;;;;;5032497;28;20133;-80
2021/09/18 08:41:12;;;;;;;4.82;3.17;;;17.60;68.60;;;;;;5016607;28;20025;-78
2021/09/18 08:43:38;;;;;;;8.60;4.47;;;17.70;68.20;;;;;;5033007;28;20026;-76
2021/09/18 08:46:06;;;;;;;5.95;4.50;;;17.90;66.00;;;;;;5034233;28;20033;-76
2021/09/18 08:48:33;;;;;;;4.65;4.15;;;17.90;65.40;;;;;;5033994;28;20048;-77
2021/09/18 08:50:59;;;;;;;7.75;4.10;;;17.80;65.90;;;;;;5031690;28;20542;-77
2021/09/18 08:53:25;;;;;;;4.35;3.92;;;17.60;66.90;;;;;;5032546;28;20116;-77
2021/09/18 08:55:56;;;;;;;6.13;3.88;;;17.60;67.30;;;;;;5032490;28;20033;-77
2021/09/18 08:58:24;;;;;;;5.00;4.00;;;17.70;67.50;;;;;;5033860;28;20049;-76
2021/09/18 09:00:52;;;;;;;5.82;3.90;;;17.80;67.50;;;;;;5031677;28;20042;-77
2021/09/18 09:03:29;;;;;;;5.85;4.22;;;17.90;67.70;;;;;;5032724;28;20026;-77
2021/09/18 09:06:00;;;;;;;6.80;4.40;;;17.80;67.50;;;;;;5034030;28;20034;-77
2021/09/18 09:08:25;;;;;;;6.05;4.38;;;17.80;68.20;;;;;;5032175;28;20026;-76
2021/09/18 09:10:53;;;;;;;4.80;4.22;;;17.90;68.20;;;;;;5031894;28;20120;-76
2021/09/18 09:13:21;;;;;;;4.45;4.03;;;18.10;67.70;;;;;;5030582;28;20122;-78
2021/09/18 09:15:50;;;;;;;5.18;3.70;;;18.30;65.90;;;;;;5032206;28;20029;-79
2021/09/18 09:18:26;;;;;;;5.43;4.55;;;18.50;65.90;;;;;;5032068;28;20307;-77
2021/09/18 09:21:27;;;;;;;;;;;18.60;63.80;;;;;;5032506;28;20033;-75
2021/09/18 09:24:06;;;;;;;4.68;4.13;;;18.50;63.60;;;;;;4994262;28;20288;-77
2021/09/18 09:26:33;;;;;;;4.57;3.60;;;18.40;64.50;;;;;;5027295;28;20509;-78
2021/09/18 09:28:59;;;;;;;6.63;4.47;;;18.40;63.50;;;;;;5031531;28;20032;-78
2021/09/18 09:31:27;;;;;;;5.18;3.95;;;18.50;63.20;;;;;;5031879;28;20098;-77
2021/09/18 09:34:14;;;;;;;4.90;3.40;;;18.50;63.20;;;;;;5015612;28;20087;-77
2021/09/18 09:36:42;;;;;;;5.88;4.10;;;18.60;63.10;;;;;;5031959;28;20492;-78
2021/09/18 09:39:10;;;;;;;5.55;3.30;;;18.70;63.50;;;;;;5031853;28;20029;-77
2021/09/18 09:41:42;;;;;;;4.38;3.30;;;18.80;63.10;;;;;;5031675;28;20037;-77
2021/09/18 09:44:13;;;;;;;4.63;3.25;;;19.20;61.30;;;;;;5031374;28;20500;-77
2021/09/18 09:46:39;;;;;;;3.33;3.03;;;19.50;60.40;;;;;;5015213;28;20055;-77
2021/09/18 09:49:11;;;;;;;7.20;4.18;;;19.90;59.40;;;;;;5032945;28;20034;-78
2021/09/18 09:51:38;;;;;;;3.88;3.22;;;20.10;58.30;;;;;;5030745;28;20030;-78
2021/09/18 09:54:24;;;;;;;3.28;2.63;;;20.00;57.70;;;;;;5030904;28;20136;-77
2021/09/18 09:57:08;;;;;;;10.43;3.38;;;19.90;57.00;;;;;;5031268;28;20116;-77
2021/09/18 09:59:34;;;;;;;3.90;3.42;;;19.90;58.00;;;;;;5031109;28;20060;-77
2021/09/18 10:02:00;;;;;;;3.42;3.03;;;19.90;58.00;;;;;;5031197;28;20026;-78
2021/09/18 10:04:25;;;;;;;4.75;2.88;;;20.00;56.60;;;;;;5031292;28;20049;-77
2021/09/18 10:06:51;;;;;;;2.40;2.20;;;20.20;56.90;;;;;;5030753;28;20025;-78
2021/09/18 10:09:18;;;;;;;6.95;3.40;;;20.40;56.70;;;;;;5014973;28;20034;-78
2021/09/18 10:11:45;;;;;;;6.20;4.03;;;20.50;55.70;;;;;;5031532;28;20441;-77
2021/09/18 10:14:19;;;;;;;5.05;3.70;;;20.40;55.60;;;;;;5031257;28;20120;-77
2021/09/18 10:16:46;;;;;;;5.88;4.15;;;19.90;56.50;;;;;;5031275;28;20021;-77
2021/09/18 10:19:13;;;;;;;5.60;4.05;;;19.80;57.70;;;;;;5031021;28;20040;-77
2021/09/18 10:24:26;;;;;;;5.13;3.65;;;19.50;58.90;;;;;;5032921;28;20055;-77
2021/09/18 10:27:19;;;;;;;4.55;3.60;;;19.40;59.40;;;;;;5030930;28;20021;-76
2021/09/18 10:29:45;;;;;;;6.22;3.75;;;19.40;59.60;;;;;;5031209;28;20032;-75
2021/09/18 10:32:11;;;;;;;8.30;3.85;;;19.30;59.00;;;;;;5031439;28;20029;-76
2021/09/18 10:34:37;;;;;;;6.13;4.15;;;19.40;59.60;;;;;;5032412;28;20470;-74
2021/09/18 10:37:03;;;;;;;4.25;3.85;;;19.60;59.80;;;;;;5032428;28;20057;-78
2021/09/18 10:39:29;;;;;;;5.30;3.40;;;20.00;59.90;;;;;;5030628;28;20025;-77
2021/09/18 10:41:57;;;;;;;4.10;3.63;;;20.30;58.20;;;;;;5030983;28;20044;-78
2021/09/18 10:44:44;;;;;;;4.53;3.95;;;20.40;56.90;;;;;;5030489;28;20121;-77
2021/09/18 10:47:10;;;;;;;4.55;3.53;;;20.40;56.50;;;;;;5030362;28;20096;-77
2021/09/18 10:49:40;;;;;;;3.25;2.90;;;20.90;55.70;;;;;;5030839;28;20434;-75
2021/09/18 10:52:21;;;;;;;7.10;2.83;;;21.10;54.30;;;;;;5031077;28;20481;-76
2021/09/18 10:55:02;;;;;;;3.55;3.05;;;21.20;54.50;;;;;;5030444;28;20424;-76
2021/09/18 10:57:51;;;;;;;3.33;2.63;;;21.30;54.00;;;;;;5031710;28;20093;-78
2021/09/18 11:00:23;;;;;;;4.60;2.90;;;21.40;53.40;;;;;;5030804;28;20132;-76
2021/09/18 11:02:50;;;;;;;6.25;3.30;;;21.40;52.30;;;;;;5030674;28;20053;-76
2021/09/18 11:05:22;;;;;;;3.03;2.22;;;21.60;50.20;;;;;;5030601;28;20025;-75
2021/09/18 11:07:53;;;;;;;3.10;2.58;;;21.80;50.30;;;;;;5030648;28;20112;-76
2021/09/18 11:10:21;;;;;;;3.85;2.78;;;22.00;49.60;;;;;;5030571;28;20486;-78
2021/09/18 11:13:06;;;;;;;2.90;2.33;;;22.00;49.10;;;;;;5030982;28;20048;-76
2021/09/18 11:15:43;;;;;;;3.10;2.45;;;21.90;48.90;;;;;;5034683;28;20037;-76
2021/09/18 11:18:14;;;;;;;3.40;2.40;;;21.90;49.90;;;;;;5034396;28;20018;-76
2021/09/18 11:20:40;;;;;;;2.90;2.45;;;21.80;50.50;;;;;;5034274;28;20175;-77
2021/09/18 11:23:06;;;;;;;3.75;2.75;;;21.70;49.60;;;;;;5034354;28;20456;-76
2021/09/18 11:25:43;;;;;;;3.10;2.60;;;21.50;49.90;;;;;;5035641;28;20049;-76
2021/09/18 11:28:09;;;;;;;4.75;2.28;;;21.50;49.90;;;;;;5034496;28;20546;-76
2021/09/18 11:30:56;;;;;;;2.72;2.20;;;21.60;50.40;;;;;;5034196;28;20029;-76
2021/09/18 11:33:23;;;;;;;2.42;2.20;;;21.90;48.30;;;;;;5035195;28;20021;-76
2021/09/18 11:35:59;;;;;;;3.72;2.88;;;22.00;46.30;;;;;;5034174;28;20058;-76
2021/09/18 11:38:30;;;;;;;2.80;2.20;;;22.00;45.70;;;;;;5035430;28;20029;-77
2021/09/18 11:41:13;;;;;;;2.80;2.20;;;21.80;45.80;;;;;;5033692;28;20060;-77
2021/09/18 11:43:41;;;;;;;2.05;1.63;;;21.90;46.90;;;;;;5034154;28;20486;-77
2021/09/18 11:46:10;;;;;;;2.17;1.98;;;22.10;46.80;;;;;;5033749;28;20033;-77
2021/09/18 11:48:36;;;;;;;2.70;2.00;;;22.40;46.30;;;;;;5034019;28;20061;-77
2021/09/18 11:51:05;;;;;;;8.93;2.40;;;22.80;44.30;;;;;;5033959;28;20057;-77
2021/09/18 11:53:31;;;;;;;7.13;3.85;;;23.00;43.60;;;;;;5017618;28;20433;-76
2021/09/18 11:55:57;;;;;;;2.58;2.03;;;23.20;43.00;;;;;;5035369;28;20029;-76
2021/09/18 11:58:29;;;;;;;2.20;1.67;;;23.30;42.60;;;;;;5033639;28;20517;-76
2021/09/18 12:01:01;;;;;;;3.35;2.08;;;23.20;41.30;;;;;;5033632;28;20033;-77
2021/09/18 12:03:29;;;;;;;3.10;1.83;;;23.10;41.40;;;;;;5033533;28;20032;-76
2021/09/18 12:06:02;;;;;;;2.45;2.13;;;23.20;41.90;;;;;;5031821;28;20029;-76
2021/09/18 12:08:30;;;;;;;3.63;1.90;;;23.30;41.10;;;;;;5033632;28;20033;-76
2021/09/18 12:11:08;;;;;;;2.45;1.77;;;23.30;41.40;;;;;;5034563;28;20034;-77
2021/09/18 12:13:35;;;;;;;1.70;1.60;;;23.60;42.00;;;;;;5033209;28;20018;-75
2021/09/18 12:16:03;;;;;;;3.20;2.10;;;23.70;42.60;;;;;;5033602;28;20033;-76
2021/09/18 12:18:30;;;;;;;6.50;3.13;;;23.70;41.60;;;;;;5035391;28;20120;-76
2021/09/18 12:20:58;;;;;;;3.95;2.95;;;23.50;41.20;;;;;;5033643;28;20434;-76
2021/09/18 12:23:24;;;;;;;3.08;1.75;;;23.40;40.80;;;;;;5033401;28;20029;-76
2021/09/18 12:25:59;;;;;;;2.53;2.15;;;23.50;40.60;;;;;;5033396;28;20056;-76
2021/09/18 12:28:26;;;;;;;2.28;1.70;;;23.70;40.70;;;;;;5033382;28;20072;-76
2021/09/18 12:30:52;;;;;;;2.50;2.30;;;23.80;40.40;;;;;;5032815;28;20025;-77
2021/09/18 12:33:29;;;;;;;2.63;1.98;;;23.70;41.00;;;;;;5032965;28;20025;-77
2021/09/18 12:36:09;;;;;;;2.10;1.83;;;24.10;40.20;;;;;;5016206;28;20030;-78
2021/09/18 12:38:36;;;;;;;9.00;6.22;;;24.50;38.70;;;;;;5017109;28;20025;-77
2021/09/18 12:41:08;;;;;;;13.90;9.73;;;24.70;38.40;;;;;;5032834;28;20080;-76
2021/09/18 12:43:35;;;;;;;2.60;2.20;;;25.20;38.10;;;;;;5033958;28;20056;-76
2021/09/18 12:46:10;;;;;;;3.25;2.10;;;25.60;36.50;;;;;;5032887;28;20029;-77
2021/09/18 12:48:40;;;;;;;5.20;2.83;;;26.00;35.60;;;;;;5032887;28;20052;-78
2021/09/18 12:51:09;;;;;;;2.28;1.92;;;26.40;35.20;;;;;;5032605;28;20116;-77